createdAt,value
2022-10-10T00:01:14.870Z,8.28
2022-10-10T00:03:43.028Z,8.25
2022-10-10T00:06:11.567Z,8.37
2022-10-10T00:08:39.748Z,8.25
2022-10-10T00:11:07.491Z,8.33
2022-10-10T00:13:35.494Z,8.39
2022-10-10T00:16:03.309Z,8.29
2022-10-10T00:18:32.057Z,8.36
2022-10-10T00:20:59.685Z,8.36
2022-10-10T00:23:27.549Z,8.40
2022-10-10T00:25:55.272Z,8.40
2022-10-10T00:28:23.385Z,8.40
2022-10-10T00:30:51.088Z,8.35
2022-10-10T00:33:18.808Z,8.32
2022-10-10T00:35:46.347Z,8.36
2022-10-10T00:38:14.969Z,8.34
2022-10-10T00:40:51.992Z,8.33
2022-10-10T00:43:19.685Z,8.25
2022-10-10T00:45:48.358Z,8.30
2022-10-10T00:48:17.989Z,8.32
2022-10-10T00:51:13.006Z,8.44
2022-10-10T00:53:42.968Z,8.40
2022-10-10T00:56:13.510Z,8.40
2022-10-10T00:58:46.709Z,8.36
2022-10-10T01:01:14.421Z,8.36
2022-10-10T01:03:41.968Z,8.39
2022-10-10T01:06:09.686Z,8.35
2022-10-10T01:08:37.653Z,8.39
2022-10-10T01:11:27.785Z,8.27
2022-10-10T01:14:06.408Z,8.25
2022-10-10T01:16:44.729Z,8.36
2022-10-10T01:19:24.751Z,8.24
2022-10-10T01:22:14.287Z,8.23
2022-10-10T01:24:52.168Z,8.23
2022-10-10T01:27:31.185Z,8.10
2022-10-10T01:30:09.988Z,8.08
2022-10-10T01:32:47.955Z,8.10
2022-10-10T01:35:33.728Z,8.13
2022-10-10T01:38:33.884Z,8.13
2022-10-10T01:41:13.988Z,7.99
2022-10-10T01:43:42.688Z,7.98
2022-10-10T01:46:17.769Z,7.94
2022-10-10T01:48:50.355Z,7.90
2022-10-10T01:51:23.789Z,7.82
2022-10-10T01:54:09.566Z,7.89
2022-10-10T01:57:11.768Z,7.85
2022-10-10T01:59:45.484Z,7.81
2022-10-10T02:02:41.983Z,7.80
2022-10-10T02:05:15.691Z,7.77
2022-10-10T02:08:07.223Z,7.82
2022-10-10T02:10:58.504Z,7.74
2022-10-10T02:13:33.347Z,7.64
2022-10-10T02:16:03.468Z,7.62
2022-10-10T02:18:35.008Z,7.58
2022-10-10T02:21:04.868Z,7.58
2022-10-10T02:23:34.167Z,7.57
2022-10-10T02:26:03.563Z,7.54
2022-10-10T02:28:40.372Z,7.43
2022-10-10T02:31:15.110Z,7.34
2022-10-10T02:33:53.507Z,7.42
2022-10-10T02:36:24.267Z,7.47
2022-10-10T02:38:54.135Z,7.39
2022-10-10T02:41:22.667Z,7.30
2022-10-10T02:43:51.831Z,7.33
2022-10-10T02:46:20.227Z,7.59
2022-10-10T02:48:47.747Z,7.63
2022-10-10T02:51:16.847Z,7.49
2022-10-10T02:53:44.443Z,7.52
2022-10-10T02:56:12.242Z,7.57
2022-10-10T02:58:39.682Z,7.53
2022-10-10T03:01:07.425Z,7.61
2022-10-10T03:03:35.027Z,7.58
2022-10-10T03:06:03.282Z,7.58
2022-10-10T03:08:30.826Z,7.56
2022-10-10T03:11:01.308Z,7.60
2022-10-10T03:13:28.944Z,7.67
2022-10-10T03:15:56.728Z,7.66
2022-10-10T03:18:24.927Z,7.66
2022-10-10T03:20:55.245Z,7.76
2022-10-10T03:23:26.206Z,7.70
2022-10-10T03:25:53.866Z,7.72
2022-10-10T03:28:22.226Z,7.70
2022-10-10T03:30:50.094Z,7.78
2022-10-10T03:33:17.606Z,7.78
2022-10-10T03:35:45.125Z,7.71
2022-10-10T03:38:13.866Z,7.66
2022-10-10T03:40:43.387Z,7.75
2022-10-10T03:43:12.482Z,7.68
2022-10-10T03:45:43.805Z,7.73
2022-10-10T03:48:11.847Z,7.73
2022-10-10T03:50:39.584Z,7.81
2022-10-10T03:53:07.287Z,7.74
2022-10-10T03:55:34.865Z,7.85
2022-10-10T03:58:02.405Z,7.95
2022-10-10T04:00:29.944Z,7.99
2022-10-10T04:02:57.566Z,7.89
2022-10-10T04:05:25.286Z,7.80
2022-10-10T04:07:52.844Z,7.75
2022-10-10T04:10:20.721Z,7.70
2022-10-10T04:12:48.434Z,7.81
2022-10-10T04:15:16.221Z,7.81
2022-10-10T04:17:43.753Z,7.85
2022-10-10T04:20:11.284Z,7.88
2022-10-10T04:22:38.907Z,7.99
2022-10-10T04:25:06.665Z,8.03
2022-10-10T04:27:34.227Z,8.03
2022-10-10T04:30:02.304Z,8.20
2022-10-10T04:32:29.985Z,8.19
2022-10-10T04:34:57.704Z,8.22
2022-10-10T04:37:25.243Z,8.31
2022-10-10T04:39:52.764Z,8.15
2022-10-10T04:42:20.344Z,8.01
2022-10-10T04:44:47.884Z,8.02
2022-10-10T04:47:15.405Z,7.99
2022-10-10T04:49:42.983Z,7.85
2022-10-10T04:52:11.026Z,7.85
2022-10-10T04:54:38.583Z,7.91
2022-10-10T04:57:06.604Z,7.95
2022-10-10T04:59:34.204Z,7.88
2022-10-10T05:02:02.174Z,7.84
2022-10-10T05:04:29.644Z,7.88
2022-10-10T05:06:57.169Z,7.86
2022-10-10T05:09:24.900Z,7.86
2022-10-10T05:11:53.041Z,7.97
2022-10-10T05:14:20.621Z,8.02
2022-10-10T05:16:48.123Z,8.14
2022-10-10T05:19:15.761Z,8.25
2022-10-10T05:21:43.323Z,8.25
2022-10-10T05:24:10.871Z,8.28
2022-10-10T05:26:42.921Z,8.37
2022-10-10T05:29:10.885Z,8.53
2022-10-10T05:31:38.384Z,8.64
2022-10-10T05:34:06.023Z,8.84
2022-10-10T05:36:33.627Z,9.19
2022-10-10T05:39:02.547Z,9.42
2022-10-10T05:41:30.062Z,9.52
2022-10-10T05:43:57.564Z,9.70
2022-10-10T05:46:27.104Z,9.86
2022-10-10T05:48:54.687Z,9.71
2022-10-10T05:51:22.225Z,9.94
2022-10-10T05:53:49.823Z,10.10
2022-10-10T05:56:17.541Z,10.13
2022-10-10T05:58:45.546Z,10.10
2022-10-10T06:01:13.241Z,9.98
2022-10-10T06:03:40.724Z,9.97
2022-10-10T06:06:08.984Z,9.76
2022-10-10T06:08:36.505Z,9.63
2022-10-10T06:11:08.158Z,9.62
2022-10-10T06:13:35.843Z,9.76
2022-10-10T06:16:03.563Z,10.11
2022-10-10T06:18:31.044Z,10.43
2022-10-10T06:21:03.603Z,10.82
2022-10-10T06:23:31.323Z,11.77
2022-10-10T06:25:59.121Z,11.76
2022-10-10T06:28:26.754Z,11.59
2022-10-10T06:30:54.363Z,11.70
2022-10-10T06:33:21.985Z,11.42
2022-10-10T06:35:49.923Z,11.46
2022-10-10T06:38:17.402Z,11.38
2022-10-10T06:40:45.760Z,11.57
2022-10-10T06:43:15.503Z,11.85
2022-10-10T06:45:46.519Z,12.14
2022-10-10T06:48:15.941Z,11.91
2022-10-10T06:50:43.564Z,11.74
2022-10-10T06:53:11.000Z,11.54
2022-10-10T06:55:38.542Z,11.55
2022-10-10T06:58:06.103Z,11.16
2022-10-10T07:00:33.641Z,11.16
2022-10-10T07:03:01.263Z,11.35
2022-10-10T07:05:28.943Z,11.27
2022-10-10T07:07:56.539Z,11.56
2022-10-10T07:10:24.200Z,11.58
2022-10-10T07:12:51.969Z,11.71
2022-10-10T07:15:19.919Z,11.87
2022-10-10T07:17:53.412Z,11.89
2022-10-10T07:20:21.924Z,11.77
2022-10-10T07:22:49.576Z,11.64
2022-10-10T07:25:17.722Z,11.69
2022-10-10T07:27:45.279Z,11.61
2022-10-10T07:30:13.199Z,11.62
2022-10-10T07:32:40.864Z,11.78
2022-10-10T07:35:08.723Z,11.91
2022-10-10T07:37:36.283Z,11.74
2022-10-10T07:40:04.143Z,11.71
2022-10-10T07:42:31.785Z,11.81
2022-10-10T07:44:59.200Z,11.62
2022-10-10T07:47:26.742Z,11.70
2022-10-10T07:49:54.244Z,11.67
2022-10-10T07:52:21.760Z,11.60
2022-10-10T07:54:49.262Z,11.66
2022-10-10T07:57:16.802Z,11.62
2022-10-10T07:59:45.901Z,11.56
2022-10-10T08:02:13.450Z,11.76
2022-10-10T08:04:41.101Z,11.98
2022-10-10T08:07:08.781Z,12.09
2022-10-10T08:09:36.320Z,12.18
2022-10-10T08:12:03.962Z,12.25
2022-10-10T08:14:31.569Z,12.54
2022-10-10T08:17:00.308Z,12.81
2022-10-10T08:19:27.982Z,12.94
2022-10-10T08:21:55.582Z,13.00
2022-10-10T08:24:23.143Z,13.02
2022-10-10T08:26:51.401Z,12.98
2022-10-10T08:29:18.901Z,13.05
2022-10-10T08:31:46.517Z,13.24
2022-10-10T08:34:14.022Z,13.38
2022-10-10T08:36:41.704Z,13.69
2022-10-10T08:39:11.201Z,13.99
2022-10-10T08:42:00.562Z,14.10
2022-10-10T08:44:37.882Z,14.52
2022-10-10T08:47:17.616Z,14.57
2022-10-10T08:49:56.742Z,14.22
2022-10-10T08:52:30.277Z,14.37
2022-10-10T08:54:59.038Z,14.27
2022-10-10T08:57:30.580Z,14.41
2022-10-10T09:00:07.921Z,14.67
2022-10-10T09:02:56.225Z,14.66
2022-10-10T09:05:41.039Z,14.69
2022-10-10T09:08:08.643Z,14.23
2022-10-10T09:10:36.101Z,14.54
2022-10-10T09:13:15.460Z,14.36
2022-10-10T09:15:57.200Z,14.39
2022-10-10T09:18:36.597Z,14.30
2022-10-10T09:21:09.057Z,14.23
2022-10-10T09:24:10.862Z,14.32
2022-10-10T09:26:44.343Z,14.52
2022-10-10T09:29:24.017Z,14.69
2022-10-10T09:31:58.886Z,14.81
2022-10-10T09:34:29.461Z,14.73
2022-10-10T09:37:00.563Z,14.94
2022-10-10T09:39:44.418Z,14.89
2022-10-10T09:42:15.157Z,14.83
2022-10-10T09:44:43.981Z,14.57
2022-10-10T09:47:17.001Z,14.92
2022-10-10T09:49:45.181Z,15.01
2022-10-10T09:52:28.861Z,15.12
2022-10-10T09:55:01.109Z,14.90
2022-10-10T09:57:39.360Z,14.74
2022-10-10T10:00:19.021Z,14.99
2022-10-10T10:03:05.958Z,14.91
2022-10-10T10:05:33.862Z,14.99
2022-10-10T10:08:01.380Z,14.68
2022-10-10T10:10:30.514Z,14.95
2022-10-10T10:12:58.285Z,14.77
2022-10-10T10:15:32.048Z,15.11
2022-10-10T10:18:19.600Z,15.41
2022-10-10T10:20:50.616Z,15.68
2022-10-10T10:23:36.445Z,15.90
2022-10-10T10:26:06.721Z,16.16
2022-10-10T10:28:44.080Z,15.91
2022-10-10T10:31:31.027Z,15.51
2022-10-10T10:34:13.481Z,15.58
2022-10-10T10:36:59.139Z,15.90
2022-10-10T10:39:55.961Z,15.72
2022-10-10T10:42:37.999Z,15.78
2022-10-10T10:45:28.720Z,15.59
2022-10-10T10:48:36.200Z,16.12
2022-10-10T10:51:31.880Z,16.43
2022-10-10T10:54:15.256Z,16.14
2022-10-10T10:57:06.578Z,16.05
2022-10-10T11:00:21.098Z,16.32
2022-10-10T11:03:05.871Z,16.65
2022-10-10T11:06:11.026Z,16.71
2022-10-10T11:08:54.426Z,16.79
2022-10-10T11:11:30.615Z,16.99
2022-10-10T11:18:59.658Z,16.87
2022-10-10T11:21:29.669Z,16.67
2022-10-10T11:24:15.055Z,16.93
2022-10-10T11:26:52.869Z,16.84
2022-10-10T11:29:23.829Z,16.98
2022-10-10T11:31:55.658Z,16.77
2022-10-10T11:34:36.079Z,16.71
2022-10-10T11:37:11.584Z,16.72
2022-10-10T11:39:45.947Z,16.52
2022-10-10T11:42:27.018Z,16.35
2022-10-10T11:45:13.228Z,16.45
2022-10-10T11:47:43.611Z,16.76
2022-10-10T11:50:21.687Z,17.09
2022-10-10T11:52:56.047Z,17.10
2022-10-10T11:55:42.188Z,17.34
2022-10-10T11:58:09.659Z,17.16
2022-10-10T12:00:43.370Z,17.03
2022-10-10T12:03:11.076Z,16.54
2022-10-10T12:05:47.321Z,16.47
2022-10-10T12:08:22.318Z,16.43
2022-10-10T12:10:52.478Z,16.74
2022-10-10T12:13:40.550Z,16.65
2022-10-10T12:16:15.038Z,16.60
2022-10-10T12:18:54.960Z,16.43
2022-10-10T12:21:26.014Z,16.32
2022-10-10T12:24:01.356Z,16.48
2022-10-10T12:26:57.697Z,16.77
2022-10-10T12:29:50.695Z,16.83
2022-10-10T12:32:18.656Z,16.70
2022-10-10T12:34:49.056Z,16.55
2022-10-10T12:37:27.066Z,16.49
2022-10-10T12:40:07.030Z,16.03
2022-10-10T12:42:39.284Z,16.15
2022-10-10T12:45:31.690Z,15.96
2022-10-10T12:48:05.365Z,15.83
2022-10-10T12:50:39.957Z,15.95
2022-10-10T12:53:13.278Z,15.99
2022-10-10T12:55:43.076Z,15.95
2022-10-10T12:58:27.457Z,15.72
2022-10-10T13:00:58.708Z,15.95
2022-10-10T13:03:42.866Z,15.94
2022-10-10T13:06:39.493Z,15.76
2022-10-10T13:09:32.400Z,15.68
2022-10-10T13:12:05.717Z,15.71
2022-10-10T13:14:44.817Z,15.57
2022-10-10T13:17:20.409Z,15.47
2022-10-10T13:19:47.933Z,15.46
2022-10-10T13:22:16.984Z,15.51
2022-10-10T13:24:45.815Z,15.47
2022-10-10T13:27:21.498Z,15.53
2022-10-10T13:29:49.348Z,15.47
2022-10-10T13:32:37.647Z,15.38
2022-10-10T13:35:13.340Z,15.38
2022-10-10T13:37:42.372Z,15.29
2022-10-10T13:40:17.336Z,15.32
2022-10-10T13:42:47.892Z,15.25
2022-10-10T13:45:32.889Z,15.34
2022-10-10T13:48:03.296Z,15.38
2022-10-10T13:50:34.575Z,15.32
2022-10-10T13:53:26.847Z,15.31
2022-10-10T13:56:22.697Z,15.29
2022-10-10T13:59:13.360Z,15.30
2022-10-10T14:01:43.989Z,15.37
2022-10-10T14:04:16.832Z,15.42
2022-10-10T14:06:52.905Z,15.31
2022-10-10T14:09:26.562Z,15.47
2022-10-10T14:11:55.825Z,15.57
2022-10-10T14:14:44.862Z,15.36
2022-10-10T14:17:12.937Z,15.55
2022-10-10T14:19:41.045Z,15.58
2022-10-10T14:22:08.696Z,15.56
2022-10-10T14:24:36.435Z,15.62
2022-10-10T14:27:26.734Z,15.48
2022-10-10T14:29:57.091Z,15.47
2022-10-10T14:32:25.214Z,15.36
2022-10-10T14:34:52.837Z,15.44
2022-10-10T14:37:27.126Z,15.30
2022-10-10T14:39:55.935Z,15.28
2022-10-10T14:42:24.975Z,15.24
2022-10-10T14:44:52.788Z,15.06
2022-10-10T14:47:24.300Z,15.09
2022-10-10T14:49:57.271Z,15.04
2022-10-10T14:52:24.798Z,15.05
2022-10-10T14:54:52.145Z,14.97
2022-10-10T14:57:20.021Z,15.06
2022-10-10T14:59:50.083Z,15.06
2022-10-10T15:02:22.179Z,15.02
2022-10-10T15:04:50.448Z,14.95
2022-10-10T15:07:18.476Z,14.84
2022-10-10T15:10:11.205Z,14.72
2022-10-10T15:12:37.811Z,14.62
2022-10-10T15:15:06.680Z,14.61
2022-10-10T15:17:34.617Z,14.53
2022-10-10T15:20:04.926Z,14.55
2022-10-10T15:22:32.745Z,14.56
2022-10-10T15:25:00.324Z,14.50
2022-10-10T15:27:32.765Z,14.56
2022-10-10T15:30:00.885Z,14.60
2022-10-10T15:32:28.615Z,14.52
2022-10-10T15:34:56.376Z,14.54
2022-10-10T15:37:25.955Z,14.46
2022-10-10T15:39:53.485Z,14.49
2022-10-10T15:42:22.966Z,14.41
2022-10-10T15:44:51.452Z,14.39
2022-10-10T15:47:19.944Z,14.31
2022-10-10T15:49:47.880Z,14.31
2022-10-10T15:52:16.264Z,14.24
2022-10-10T15:54:43.745Z,14.09
2022-10-10T15:57:14.117Z,14.03
2022-10-10T15:59:44.390Z,14.00
2022-10-10T16:02:13.060Z,13.96
2022-10-10T16:04:40.552Z,13.84
2022-10-10T16:09:55.695Z,13.83
2022-10-10T16:12:23.244Z,13.73
2022-10-10T16:14:50.794Z,13.74
2022-10-10T16:17:22.330Z,13.80
2022-10-10T16:19:51.464Z,13.79
2022-10-10T16:22:19.464Z,13.74
2022-10-10T16:24:54.047Z,13.70
2022-10-10T16:27:32.376Z,13.65
2022-10-10T16:29:59.760Z,13.64
2022-10-10T16:32:27.301Z,13.60
2022-10-10T16:34:55.005Z,13.55
2022-10-10T16:37:22.447Z,13.54
2022-10-10T16:39:49.979Z,13.47
2022-10-10T16:42:17.417Z,13.51
2022-10-10T16:44:44.947Z,13.52
2022-10-10T16:47:12.395Z,13.48
2022-10-10T16:49:40.495Z,13.52
2022-10-10T16:52:07.887Z,13.50
2022-10-10T16:54:35.386Z,13.46
2022-10-10T16:57:02.776Z,13.44
2022-10-10T16:59:30.245Z,13.38
2022-10-10T17:01:57.668Z,13.36
2022-10-10T17:04:25.187Z,13.27
2022-10-10T17:06:52.933Z,13.25
2022-10-10T17:09:20.353Z,13.25
2022-10-10T17:11:51.190Z,13.30
2022-10-10T17:14:19.456Z,13.28
2022-10-10T17:17:11.037Z,13.20
2022-10-10T17:19:34.424Z,13.23
2022-10-10T17:22:01.918Z,13.23
2022-10-10T17:24:29.403Z,13.20
2022-10-10T17:26:56.806Z,13.21
2022-10-10T17:29:24.868Z,13.17
2022-10-10T17:31:52.333Z,13.13
2022-10-10T17:34:19.959Z,13.08
2022-10-10T17:36:47.526Z,12.95
2022-10-10T17:39:15.102Z,12.86
2022-10-10T17:41:42.675Z,12.73
2022-10-10T17:44:10.919Z,12.74
2022-10-10T17:46:38.786Z,12.73
2022-10-10T17:49:09.017Z,12.69
2022-10-10T17:51:38.517Z,12.60
2022-10-10T17:54:06.701Z,12.50
2022-10-10T17:56:34.718Z,12.36
2022-10-10T17:59:05.627Z,12.37
2022-10-10T18:01:35.066Z,12.35
2022-10-10T18:04:02.833Z,12.34
2022-10-10T18:06:33.107Z,12.30
2022-10-10T18:09:01.056Z,12.28
2022-10-10T18:11:30.830Z,12.33
2022-10-10T18:14:00.811Z,12.32
2022-10-10T18:16:34.063Z,12.30
2022-10-10T18:19:03.705Z,12.28
2022-10-10T18:21:31.326Z,12.26
2022-10-10T18:23:59.010Z,12.28
2022-10-10T18:26:32.283Z,12.27
2022-10-10T18:28:59.776Z,12.23
2022-10-10T18:31:33.303Z,12.24
2022-10-10T18:34:02.606Z,12.23
2022-10-10T18:36:32.735Z,12.24
2022-10-10T18:39:02.483Z,12.29
2022-10-10T18:41:34.601Z,12.30
2022-10-10T18:44:07.699Z,12.27
2022-10-10T18:46:35.367Z,12.24
2022-10-10T18:49:04.946Z,12.24
2022-10-10T18:51:32.641Z,12.24
2022-10-10T18:54:04.342Z,12.22
2022-10-10T18:56:36.682Z,12.30
2022-10-10T18:59:06.567Z,12.35
2022-10-10T19:01:36.903Z,12.35
2022-10-10T19:04:06.636Z,12.41
2022-10-10T19:06:35.070Z,12.43
2022-10-10T19:09:03.927Z,12.46
2022-10-10T19:11:36.731Z,12.45
2022-10-10T19:14:06.516Z,12.40
2022-10-10T19:16:34.287Z,12.36
2022-10-10T19:19:02.587Z,12.39
2022-10-10T19:21:32.198Z,12.36
2022-10-10T19:24:01.920Z,12.38
2022-10-10T19:26:33.539Z,12.43
2022-10-10T19:29:06.587Z,12.38
2022-10-10T19:31:36.788Z,12.35
2022-10-10T19:34:04.942Z,12.40
2022-10-10T19:36:33.351Z,12.46
2022-10-10T19:39:02.071Z,12.49
2022-10-10T19:41:29.937Z,12.49
2022-10-10T19:43:58.753Z,12.42
2022-10-10T19:46:27.647Z,12.38
2022-10-10T19:48:58.102Z,12.38
2022-10-10T19:51:27.417Z,12.39
2022-10-10T19:53:55.709Z,12.38
2022-10-10T19:56:24.807Z,12.41
2022-10-10T19:58:54.566Z,12.40
2022-10-10T20:01:28.190Z,12.42
2022-10-10T20:03:57.173Z,12.44
2022-10-10T20:06:25.166Z,12.42
2022-10-10T20:08:52.617Z,12.38
2022-10-10T20:11:20.487Z,12.38
2022-10-10T20:13:51.975Z,12.40
2022-10-10T20:16:20.236Z,12.42
2022-10-10T20:18:47.746Z,12.39
2022-10-10T20:21:24.485Z,12.38
2022-10-10T20:23:52.056Z,12.41
2022-10-10T20:26:21.786Z,12.32
2022-10-10T20:28:50.864Z,12.30
2022-10-10T20:31:23.885Z,12.30
2022-10-10T20:33:53.335Z,12.28
2022-10-10T20:36:22.155Z,12.31
2022-10-10T20:39:05.158Z,12.33
2022-10-10T20:41:34.738Z,12.33
2022-10-10T20:44:04.916Z,12.35
2022-10-10T20:46:35.445Z,12.35
2022-10-10T20:49:05.759Z,12.34
2022-10-10T20:51:33.479Z,12.36
2022-10-10T20:54:03.842Z,12.33
2022-10-10T20:56:32.784Z,12.33
2022-10-10T20:59:00.738Z,12.29
2022-10-10T21:01:29.992Z,12.25
2022-10-10T21:03:58.835Z,12.20
2022-10-10T21:06:29.567Z,12.20
2022-10-10T21:09:00.797Z,12.19
2022-10-10T21:11:28.573Z,12.16
2022-10-10T21:13:58.018Z,12.14
2022-10-10T21:16:28.855Z,12.19
2022-10-10T21:18:58.566Z,12.14
2022-10-10T21:21:29.667Z,12.16
2022-10-10T21:23:57.248Z,12.14
2022-10-10T21:26:26.732Z,12.12
2022-10-10T21:28:54.757Z,12.14
2022-10-10T21:31:26.023Z,12.23
2022-10-10T21:33:54.242Z,12.31
2022-10-10T21:36:23.226Z,12.23
2022-10-10T21:38:50.787Z,12.15
2022-10-10T21:41:20.149Z,12.11
2022-10-10T21:43:51.560Z,12.08
2022-10-10T21:46:35.650Z,12.02
2022-10-10T21:49:07.979Z,12.06
2022-10-10T21:51:40.981Z,12.08
2022-10-10T21:54:09.035Z,12.06
2022-10-10T21:56:36.623Z,12.03
2022-10-10T21:59:04.892Z,12.06
2022-10-10T22:01:37.662Z,12.00
2022-10-10T22:04:06.575Z,12.03
2022-10-10T22:06:34.341Z,12.04
2022-10-10T22:09:02.977Z,12.01
2022-10-10T22:11:33.262Z,11.99
2022-10-10T22:14:02.665Z,11.99
2022-10-10T22:16:32.388Z,12.00
2022-10-10T22:19:00.436Z,11.99
2022-10-10T22:21:31.823Z,11.99
2022-10-10T22:24:02.126Z,11.94
2022-10-10T22:26:30.465Z,11.93
2022-10-10T22:28:58.346Z,11.93
2022-10-10T22:31:26.229Z,11.85
2022-10-10T22:33:53.637Z,11.79
2022-10-10T22:36:21.266Z,11.79
2022-10-10T22:38:48.705Z,11.83
2022-10-10T22:41:16.218Z,11.86
2022-10-10T22:43:43.825Z,11.86
2022-10-10T22:46:11.344Z,11.86
2022-10-10T22:48:39.305Z,11.88
2022-10-10T22:51:10.707Z,11.86
2022-10-10T22:53:42.500Z,11.84
2022-10-10T22:56:11.939Z,11.86
2022-10-10T22:58:39.386Z,11.78
2022-10-10T23:01:10.153Z,11.73
2022-10-10T23:03:37.828Z,11.67
2022-10-10T23:06:05.701Z,11.63
2022-10-10T23:08:34.036Z,11.66
2022-10-10T23:11:01.765Z,11.61
2022-10-10T23:13:30.090Z,11.56
2022-10-10T23:15:57.676Z,11.53
2022-10-10T23:18:25.216Z,11.44
2022-10-10T23:20:52.625Z,11.40
2022-10-10T23:23:20.223Z,11.39
2022-10-10T23:25:48.374Z,11.37
2022-10-10T23:28:17.288Z,11.37
2022-10-10T23:30:46.883Z,11.35
2022-10-10T23:33:16.255Z,11.30
2022-10-10T23:35:43.856Z,11.25
2022-10-10T23:38:11.453Z,11.20
2022-10-10T23:40:38.934Z,11.16
2022-10-10T23:43:07.615Z,11.13
2022-10-10T23:45:35.036Z,11.07
2022-10-10T23:48:02.493Z,11.07
2022-10-10T23:50:30.126Z,11.06
2022-10-10T23:52:57.696Z,11.05
2022-10-10T23:55:25.308Z,11.02
2022-10-10T23:57:52.807Z,11.03
